sensor_id;sensor_type;location;lat;lon;timestamp;P1;durP1;ratioP1;P2;durP2;ratioP2
58553;SDS011;48119;53.218;6.576;2022-10-17T00:00:22;10.27;;;3.90;;
58553;SDS011;48119;53.218;6.576;2022-10-17T00:02:49;12.25;;;3.83;;
58553;SDS011;48119;53.218;6.576;2022-10-17T00:05:15;12.55;;;3.45;;
58553;SDS011;48119;53.218;6.576;2022-10-17T00:07:41;12.27;;;4.47;;
58553;SDS011;48119;53.218;6.576;2022-10-17T00:10:07;8.52;;;3.67;;
58553;SDS011;48119;53.218;6.576;2022-10-17T00:12:37;14.30;;;5.10;;
58553;SDS011;48119;53.218;6.576;2022-10-17T00:15:04;15.30;;;8.25;;
58553;SDS011;48119;53.218;6.576;2022-10-17T00:17:31;17.48;;;8.50;;
58553;SDS011;48119;53.218;6.576;2022-10-17T00:19:57;19.30;;;6.40;;
58553;SDS011;48119;53.218;6.576;2022-10-17T00:22:24;15.15;;;6.25;;
58553;SDS011;48119;53.218;6.576;2022-10-17T00:24:50;11.05;;;5.65;;
58553;SDS011;48119;53.218;6.576;2022-10-17T00:27:16;13.38;;;6.00;;
58553;SDS011;48119;53.218;6.576;2022-10-17T00:29:41;11.77;;;4.85;;
58553;SDS011;48119;53.218;6.576;2022-10-17T00:32:07;15.73;;;5.47;;
58553;SDS011;48119;53.218;6.576;2022-10-17T00:34:33;12.82;;;5.05;;
58553;SDS011;48119;53.218;6.576;2022-10-17T00:36:58;14.93;;;5.30;;
58553;SDS011;48119;53.218;6.576;2022-10-17T00:39:24;10.13;;;4.50;;
58553;SDS011;48119;53.218;6.576;2022-10-17T00:41:50;10.50;;;4.40;;
58553;SDS011;48119;53.218;6.576;2022-10-17T00:46:53;7.60;;;3.55;;
58553;SDS011;48119;53.218;6.576;2022-10-17T00:49:19;13.48;;;4.03;;
58553;SDS011;48119;53.218;6.576;2022-10-17T00:51:58;10.07;;;3.75;;
58553;SDS011;48119;53.218;6.576;2022-10-17T00:54:27;13.38;;;3.58;;
58553;SDS011;48119;53.218;6.576;2022-10-17T00:56:58;9.20;;;3.42;;
58553;SDS011;48119;53.218;6.576;2022-10-17T00:59:24;10.80;;;3.40;;
58553;SDS011;48119;53.218;6.576;2022-10-17T01:04:31;9.15;;;3.72;;
58553;SDS011;48119;53.218;6.576;2022-10-17T01:06:57;7.95;;;2.90;;
58553;SDS011;48119;53.218;6.576;2022-10-17T01:09:23;10.70;;;3.33;;
58553;SDS011;48119;53.218;6.576;2022-10-17T01:17:59;7.47;;;3.45;;
58553;SDS011;48119;53.218;6.576;2022-10-17T01:31:46;9.15;;;3.72;;
58553;SDS011;48119;53.218;6.576;2022-10-17T01:34:17;12.75;;;3.63;;
58553;SDS011;48119;53.218;6.576;2022-10-17T01:37:29;11.75;;;4.45;;
58553;SDS011;48119;53.218;6.576;2022-10-17T01:40:06;10.73;;;3.47;;
58553;SDS011;48119;53.218;6.576;2022-10-17T01:42:54;9.13;;;3.67;;
58553;SDS011;48119;53.218;6.576;2022-10-17T01:48:06;7.72;;;2.97;;
58553;SDS011;48119;53.218;6.576;2022-10-17T01:50:40;7.63;;;3.67;;
58553;SDS011;48119;53.218;6.576;2022-10-17T01:53:10;8.20;;;3.65;;
58553;SDS011;48119;53.218;6.576;2022-10-17T01:55:41;9.55;;;4.35;;
58553;SDS011;48119;53.218;6.576;2022-10-17T01:58:13;8.63;;;4.75;;
58553;SDS011;48119;53.218;6.576;2022-10-17T02:00:45;10.23;;;4.63;;
58553;SDS011;48119;53.218;6.576;2022-10-17T02:03:13;10.20;;;5.65;;
58553;SDS011;48119;53.218;6.576;2022-10-17T02:05:41;11.15;;;5.20;;
58553;SDS011;48119;53.218;6.576;2022-10-17T02:08:08;9.27;;;5.28;;
58553;SDS011;48119;53.218;6.576;2022-10-17T02:10:38;11.20;;;5.07;;
58553;SDS011;48119;53.218;6.576;2022-10-17T02:16:03;7.53;;;4.72;;
58553;SDS011;48119;53.218;6.576;2022-10-17T02:18:43;8.52;;;4.93;;
58553;SDS011;48119;53.218;6.576;2022-10-17T02:27:43;6.97;;;4.22;;
58553;SDS011;48119;53.218;6.576;2022-10-17T02:30:22;8.55;;;3.78;;
58553;SDS011;48119;53.218;6.576;2022-10-17T02:33:20;7.13;;;3.45;;
58553;SDS011;48119;53.218;6.576;2022-10-17T02:35:57;5.55;;;3.40;;
58553;SDS011;48119;53.218;6.576;2022-10-17T02:38:27;7.95;;;3.65;;
58553;SDS011;48119;53.218;6.576;2022-10-17T02:40:54;7.70;;;3.22;;
58553;SDS011;48119;53.218;6.576;2022-10-17T02:43:20;6.40;;;3.78;;
58553;SDS011;48119;53.218;6.576;2022-10-17T02:45:47;8.82;;;4.05;;
58553;SDS011;48119;53.218;6.576;2022-10-17T02:48:16;6.35;;;3.50;;
58553;SDS011;48119;53.218;6.576;2022-10-17T02:56:17;7.70;;;4.40;;
58553;SDS011;48119;53.218;6.576;2022-10-17T02:58:50;11.18;;;5.25;;
58553;SDS011;48119;53.218;6.576;2022-10-17T03:01:19;6.55;;;3.80;;
58553;SDS011;48119;53.218;6.576;2022-10-17T03:03:46;6.47;;;4.22;;
58553;SDS011;48119;53.218;6.576;2022-10-17T03:06:11;9.57;;;4.20;;
58553;SDS011;48119;53.218;6.576;2022-10-17T03:08:37;6.95;;;3.75;;
58553;SDS011;48119;53.218;6.576;2022-10-17T03:11:03;12.02;;;4.60;;
58553;SDS011;48119;53.218;6.576;2022-10-17T03:13:28;5.32;;;4.07;;
58553;SDS011;48119;53.218;6.576;2022-10-17T03:15:55;11.40;;;4.75;;
58553;SDS011;48119;53.218;6.576;2022-10-17T03:18:21;5.05;;;3.70;;
58553;SDS011;48119;53.218;6.576;2022-10-17T03:20:47;5.90;;;3.80;;
58553;SDS011;48119;53.218;6.576;2022-10-17T03:23:13;5.80;;;4.47;;
58553;SDS011;48119;53.218;6.576;2022-10-17T03:25:38;8.18;;;4.80;;
58553;SDS011;48119;53.218;6.576;2022-10-17T03:28:04;8.90;;;4.90;;
58553;SDS011;48119;53.218;6.576;2022-10-17T03:30:30;9.60;;;4.32;;
58553;SDS011;48119;53.218;6.576;2022-10-17T03:32:57;6.82;;;4.13;;
58553;SDS011;48119;53.218;6.576;2022-10-17T03:35:23;10.77;;;3.97;;
58553;SDS011;48119;53.218;6.576;2022-10-17T03:37:49;6.80;;;4.35;;
58553;SDS011;48119;53.218;6.576;2022-10-17T03:40:15;6.00;;;4.43;;
58553;SDS011;48119;53.218;6.576;2022-10-17T03:42:41;9.18;;;5.25;;
58553;SDS011;48119;53.218;6.576;2022-10-17T03:45:07;7.25;;;4.50;;
58553;SDS011;48119;53.218;6.576;2022-10-17T03:47:33;5.90;;;4.18;;
58553;SDS011;48119;53.218;6.576;2022-10-17T03:49:58;8.75;;;5.10;;
58553;SDS011;48119;53.218;6.576;2022-10-17T03:52:24;9.00;;;5.43;;
58553;SDS011;48119;53.218;6.576;2022-10-17T03:54:50;9.48;;;5.40;;
58553;SDS011;48119;53.218;6.576;2022-10-17T03:57:16;8.88;;;6.20;;
58553;SDS011;48119;53.218;6.576;2022-10-17T03:59:42;7.13;;;5.55;;
58553;SDS011;48119;53.218;6.576;2022-10-17T04:02:08;9.63;;;5.25;;
58553;SDS011;48119;53.218;6.576;2022-10-17T04:04:34;7.35;;;5.20;;
58553;SDS011;48119;53.218;6.576;2022-10-17T04:06:59;6.07;;;4.72;;
58553;SDS011;48119;53.218;6.576;2022-10-17T04:09:25;9.85;;;5.53;;
58553;SDS011;48119;53.218;6.576;2022-10-17T04:11:51;5.93;;;4.97;;
58553;SDS011;48119;53.218;6.576;2022-10-17T04:14:16;8.48;;;4.65;;
58553;SDS011;48119;53.218;6.576;2022-10-17T04:16:42;7.03;;;4.85;;
58553;SDS011;48119;53.218;6.576;2022-10-17T04:19:11;6.53;;;5.07;;
58553;SDS011;48119;53.218;6.576;2022-10-17T04:21:38;7.20;;;5.35;;
58553;SDS011;48119;53.218;6.576;2022-10-17T04:24:03;10.02;;;5.32;;
58553;SDS011;48119;53.218;6.576;2022-10-17T04:26:29;8.93;;;5.18;;
58553;SDS011;48119;53.218;6.576;2022-10-17T04:28:55;6.45;;;5.60;;
58553;SDS011;48119;53.218;6.576;2022-10-17T04:31:21;8.68;;;5.65;;
58553;SDS011;48119;53.218;6.576;2022-10-17T04:33:47;6.28;;;5.25;;
58553;SDS011;48119;53.218;6.576;2022-10-17T04:36:15;6.15;;;5.28;;
58553;SDS011;48119;53.218;6.576;2022-10-17T04:38:42;10.48;;;5.65;;
58553;SDS011;48119;53.218;6.576;2022-10-17T04:41:09;6.95;;;5.75;;
58553;SDS011;48119;53.218;6.576;2022-10-17T04:43:37;6.45;;;5.38;;
58553;SDS011;48119;53.218;6.576;2022-10-17T04:46:06;7.50;;;6.22;;
58553;SDS011;48119;53.218;6.576;2022-10-17T04:48:34;9.13;;;5.53;;
58553;SDS011;48119;53.218;6.576;2022-10-17T04:51:01;8.05;;;5.50;;
58553;SDS011;48119;53.218;6.576;2022-10-17T04:53:29;8.77;;;5.80;;
58553;SDS011;48119;53.218;6.576;2022-10-17T04:55:57;8.35;;;6.10;;
58553;SDS011;48119;53.218;6.576;2022-10-17T04:58:23;8.75;;;6.38;;
58553;SDS011;48119;53.218;6.576;2022-10-17T05:00:48;9.05;;;5.72;;
58553;SDS011;48119;53.218;6.576;2022-10-17T05:03:14;8.68;;;5.88;;
58553;SDS011;48119;53.218;6.576;2022-10-17T05:05:40;7.75;;;5.75;;
58553;SDS011;48119;53.218;6.576;2022-10-17T05:08:07;9.93;;;6.22;;
58553;SDS011;48119;53.218;6.576;2022-10-17T05:10:41;13.90;;;6.53;;
58553;SDS011;48119;53.218;6.576;2022-10-17T05:13:08;12.40;;;6.63;;
58553;SDS011;48119;53.218;6.576;2022-10-17T05:15:35;10.48;;;6.43;;
58553;SDS011;48119;53.218;6.576;2022-10-17T05:18:01;8.70;;;5.95;;
58553;SDS011;48119;53.218;6.576;2022-10-17T05:20:27;9.65;;;6.57;;
58553;SDS011;48119;53.218;6.576;2022-10-17T05:22:52;11.75;;;6.97;;
58553;SDS011;48119;53.218;6.576;2022-10-17T05:25:18;8.23;;;6.78;;
58553;SDS011;48119;53.218;6.576;2022-10-17T05:27:45;9.80;;;6.78;;
58553;SDS011;48119;53.218;6.576;2022-10-17T05:30:11;10.27;;;7.13;;
58553;SDS011;48119;53.218;6.576;2022-10-17T05:32:36;8.48;;;6.85;;
58553;SDS011;48119;53.218;6.576;2022-10-17T05:35:02;10.75;;;6.68;;
58553;SDS011;48119;53.218;6.576;2022-10-17T05:37:29;9.15;;;7.10;;
58553;SDS011;48119;53.218;6.576;2022-10-17T05:39:55;11.02;;;8.10;;
58553;SDS011;48119;53.218;6.576;2022-10-17T05:42:21;12.35;;;7.18;;
58553;SDS011;48119;53.218;6.576;2022-10-17T05:44:47;10.65;;;6.75;;
58553;SDS011;48119;53.218;6.576;2022-10-17T05:47:13;7.93;;;6.85;;
58553;SDS011;48119;53.218;6.576;2022-10-17T05:49:39;9.77;;;7.25;;
58553;SDS011;48119;53.218;6.576;2022-10-17T05:52:05;9.07;;;7.25;;
58553;SDS011;48119;53.218;6.576;2022-10-17T05:54:31;11.82;;;7.70;;
58553;SDS011;48119;53.218;6.576;2022-10-17T05:56:56;11.68;;;7.78;;
58553;SDS011;48119;53.218;6.576;2022-10-17T05:59:25;11.18;;;7.65;;
58553;SDS011;48119;53.218;6.576;2022-10-17T06:01:52;9.07;;;7.38;;
58553;SDS011;48119;53.218;6.576;2022-10-17T06:04:18;10.73;;;7.85;;
58553;SDS011;48119;53.218;6.576;2022-10-17T06:06:45;9.27;;;7.65;;
58553;SDS011;48119;53.218;6.576;2022-10-17T06:09:11;11.13;;;7.57;;
58553;SDS011;48119;53.218;6.576;2022-10-17T06:11:36;11.65;;;7.35;;
58553;SDS011;48119;53.218;6.576;2022-10-17T06:14:02;9.63;;;7.68;;
58553;SDS011;48119;53.218;6.576;2022-10-17T06:16:28;10.35;;;7.40;;
58553;SDS011;48119;53.218;6.576;2022-10-17T06:18:54;12.27;;;8.88;;
58553;SDS011;48119;53.218;6.576;2022-10-17T06:21:20;10.32;;;7.97;;
58553;SDS011;48119;53.218;6.576;2022-10-17T06:23:47;12.27;;;8.10;;
58553;SDS011;48119;53.218;6.576;2022-10-17T06:26:13;11.90;;;8.35;;
58553;SDS011;48119;53.218;6.576;2022-10-17T06:28:39;11.63;;;7.72;;
58553;SDS011;48119;53.218;6.576;2022-10-17T06:31:09;10.73;;;7.95;;
58553;SDS011;48119;53.218;6.576;2022-10-17T06:33:37;9.70;;;8.00;;
58553;SDS011;48119;53.218;6.576;2022-10-17T06:36:03;12.93;;;8.30;;
58553;SDS011;48119;53.218;6.576;2022-10-17T06:38:30;11.07;;;7.85;;
58553;SDS011;48119;53.218;6.576;2022-10-17T06:41:02;11.00;;;7.75;;
58553;SDS011;48119;53.218;6.576;2022-10-17T06:43:38;10.32;;;7.80;;
58553;SDS011;48119;53.218;6.576;2022-10-17T06:46:05;12.15;;;8.20;;
58553;SDS011;48119;53.218;6.576;2022-10-17T06:48:31;11.77;;;8.68;;
58553;SDS011;48119;53.218;6.576;2022-10-17T06:51:00;15.07;;;8.25;;
58553;SDS011;48119;53.218;6.576;2022-10-17T06:53:27;16.80;;;8.52;;
58553;SDS011;48119;53.218;6.576;2022-10-17T06:55:54;9.57;;;8.10;;
58553;SDS011;48119;53.218;6.576;2022-10-17T06:58:22;12.50;;;8.07;;
58553;SDS011;48119;53.218;6.576;2022-10-17T07:00:48;9.27;;;8.10;;
58553;SDS011;48119;53.218;6.576;2022-10-17T07:03:13;15.20;;;8.10;;
58553;SDS011;48119;53.218;6.576;2022-10-17T07:05:39;13.38;;;8.13;;
58553;SDS011;48119;53.218;6.576;2022-10-17T07:08:05;10.82;;;8.15;;
58553;SDS011;48119;53.218;6.576;2022-10-17T07:10:31;10.88;;;8.35;;
58553;SDS011;48119;53.218;6.576;2022-10-17T07:13:02;8.95;;;7.50;;
58553;SDS011;48119;53.218;6.576;2022-10-17T07:15:28;12.65;;;7.78;;
58553;SDS011;48119;53.218;6.576;2022-10-17T07:17:54;15.50;;;9.23;;
58553;SDS011;48119;53.218;6.576;2022-10-17T07:20:19;12.40;;;7.85;;
58553;SDS011;48119;53.218;6.576;2022-10-17T07:22:45;9.27;;;7.32;;
58553;SDS011;48119;53.218;6.576;2022-10-17T07:25:11;11.30;;;6.97;;
58553;SDS011;48119;53.218;6.576;2022-10-17T07:27:36;12.15;;;7.95;;
58553;SDS011;48119;53.218;6.576;2022-10-17T07:30:03;11.95;;;7.95;;
58553;SDS011;48119;53.218;6.576;2022-10-17T07:32:29;9.95;;;7.53;;
58553;SDS011;48119;53.218;6.576;2022-10-17T07:34:55;10.65;;;7.22;;
58553;SDS011;48119;53.218;6.576;2022-10-17T07:37:21;9.95;;;7.60;;
58553;SDS011;48119;53.218;6.576;2022-10-17T07:39:46;9.68;;;7.38;;
58553;SDS011;48119;53.218;6.576;2022-10-17T07:42:12;9.32;;;6.93;;
58553;SDS011;48119;53.218;6.576;2022-10-17T07:44:40;10.63;;;6.88;;
58553;SDS011;48119;53.218;6.576;2022-10-17T07:47:06;14.65;;;7.93;;
58553;SDS011;48119;53.218;6.576;2022-10-17T07:49:32;14.50;;;8.50;;
58553;SDS011;48119;53.218;6.576;2022-10-17T07:51:57;9.52;;;6.50;;
58553;SDS011;48119;53.218;6.576;2022-10-17T07:54:23;10.10;;;6.57;;
58553;SDS011;48119;53.218;6.576;2022-10-17T07:56:49;9.95;;;7.78;;
58553;SDS011;48119;53.218;6.576;2022-10-17T07:59:18;8.60;;;6.53;;
58553;SDS011;48119;53.218;6.576;2022-10-17T08:01:43;12.90;;;7.85;;
58553;SDS011;48119;53.218;6.576;2022-10-17T08:04:09;10.13;;;7.28;;
58553;SDS011;48119;53.218;6.576;2022-10-17T08:06:35;9.45;;;7.38;;
58553;SDS011;48119;53.218;6.576;2022-10-17T08:09:01;9.40;;;7.55;;
58553;SDS011;48119;53.218;6.576;2022-10-17T08:11:26;10.98;;;6.90;;
58553;SDS011;48119;53.218;6.576;2022-10-17T08:13:55;11.30;;;6.88;;
58553;SDS011;48119;53.218;6.576;2022-10-17T08:16:20;12.88;;;7.72;;
58553;SDS011;48119;53.218;6.576;2022-10-17T08:18:46;10.50;;;8.35;;
58553;SDS011;48119;53.218;6.576;2022-10-17T08:21:12;11.68;;;8.75;;
58553;SDS011;48119;53.218;6.576;2022-10-17T08:23:37;10.88;;;6.95;;
58553;SDS011;48119;53.218;6.576;2022-10-17T08:26:04;12.10;;;8.15;;
58553;SDS011;48119;53.218;6.576;2022-10-17T08:28:34;14.50;;;7.78;;
58553;SDS011;48119;53.218;6.576;2022-10-17T08:31:02;12.13;;;7.22;;
58553;SDS011;48119;53.218;6.576;2022-10-17T08:33:33;12.45;;;6.95;;
58553;SDS011;48119;53.218;6.576;2022-10-17T08:36:00;11.75;;;6.82;;
58553;SDS011;48119;53.218;6.576;2022-10-17T08:38:27;11.85;;;8.23;;
58553;SDS011;48119;53.218;6.576;2022-10-17T08:40:55;12.88;;;6.82;;
58553;SDS011;48119;53.218;6.576;2022-10-17T08:43:27;9.60;;;7.38;;
58553;SDS011;48119;53.218;6.576;2022-10-17T08:46:03;13.32;;;7.45;;
58553;SDS011;48119;53.218;6.576;2022-10-17T08:48:36;12.13;;;6.88;;
58553;SDS011;48119;53.218;6.576;2022-10-17T08:56:39;14.27;;;7.28;;
58553;SDS011;48119;53.218;6.576;2022-10-17T08:59:22;17.35;;;8.18;;
58553;SDS011;48119;53.218;6.576;2022-10-17T09:07:27;11.30;;;6.97;;
58553;SDS011;48119;53.218;6.576;2022-10-17T09:10:45;12.55;;;7.85;;
58553;SDS011;48119;53.218;6.576;2022-10-17T09:21:43;8.70;;;6.63;;
58553;SDS011;48119;53.218;6.576;2022-10-17T09:24:20;13.07;;;7.65;;
58553;SDS011;48119;53.218;6.576;2022-10-17T09:26:52;10.35;;;7.45;;
58553;SDS011;48119;53.218;6.576;2022-10-17T09:29:23;10.65;;;7.53;;
58553;SDS011;48119;53.218;6.576;2022-10-17T09:31:56;10.88;;;7.72;;
58553;SDS011;48119;53.218;6.576;2022-10-17T09:34:34;10.27;;;6.95;;
58553;SDS011;48119;53.218;6.576;2022-10-17T09:37:00;9.30;;;7.20;;
58553;SDS011;48119;53.218;6.576;2022-10-17T09:39:27;10.60;;;6.65;;
58553;SDS011;48119;53.218;6.576;2022-10-17T09:41:57;11.82;;;7.47;;
58553;SDS011;48119;53.218;6.576;2022-10-17T09:44:29;14.85;;;7.05;;
58553;SDS011;48119;53.218;6.576;2022-10-17T09:49:50;12.25;;;7.32;;
58553;SDS011;48119;53.218;6.576;2022-10-17T09:52:17;10.60;;;7.45;;
58553;SDS011;48119;53.218;6.576;2022-10-17T09:57:28;11.48;;;7.07;;
58553;SDS011;48119;53.218;6.576;2022-10-17T10:00:44;12.20;;;8.25;;
58553;SDS011;48119;53.218;6.576;2022-10-17T10:05:37;17.23;;;8.52;;
58553;SDS011;48119;53.218;6.576;2022-10-17T10:08:46;10.60;;;7.28;;
58553;SDS011;48119;53.218;6.576;2022-10-17T10:10:59;15.07;;;8.38;;
58553;SDS011;48119;53.218;6.576;2022-10-17T10:13:29;11.15;;;7.65;;
58553;SDS011;48119;53.218;6.576;2022-10-17T10:16:11;15.43;;;9.00;;
58553;SDS011;48119;53.218;6.576;2022-10-17T10:18:40;9.07;;;7.03;;
58553;SDS011;48119;53.218;6.576;2022-10-17T10:21:10;12.43;;;8.15;;
58553;SDS011;48119;53.218;6.576;2022-10-17T10:24:03;13.97;;;9.40;;
58553;SDS011;48119;53.218;6.576;2022-10-17T10:26:37;12.60;;;8.57;;
58553;SDS011;48119;53.218;6.576;2022-10-17T10:35:28;10.10;;;7.18;;
58553;SDS011;48119;53.218;6.576;2022-10-17T10:37:53;14.00;;;7.70;;
58553;SDS011;48119;53.218;6.576;2022-10-17T10:42:51;12.27;;;8.48;;
58553;SDS011;48119;53.218;6.576;2022-10-17T10:46:01;9.77;;;6.90;;
58553;SDS011;48119;53.218;6.576;2022-10-17T10:56:27;10.00;;;7.68;;
58553;SDS011;48119;53.218;6.576;2022-10-17T10:59:14;11.63;;;8.30;;
58553;SDS011;48119;53.218;6.576;2022-10-17T11:04:26;18.35;;;9.88;;
58553;SDS011;48119;53.218;6.576;2022-10-17T11:07:09;10.93;;;7.68;;
58553;SDS011;48119;53.218;6.576;2022-10-17T11:09:50;9.73;;;7.40;;
58553;SDS011;48119;53.218;6.576;2022-10-17T11:12:22;14.73;;;8.98;;
58553;SDS011;48119;53.218;6.576;2022-10-17T11:15:06;13.63;;;8.85;;
58553;SDS011;48119;53.218;6.576;2022-10-17T11:20:41;16.75;;;9.00;;
58553;SDS011;48119;53.218;6.576;2022-10-17T11:23:59;15.95;;;9.18;;
58553;SDS011;48119;53.218;6.576;2022-10-17T11:26:09;10.25;;;8.00;;
58553;SDS011;48119;53.218;6.576;2022-10-17T11:28:40;12.27;;;8.52;;
58553;SDS011;48119;53.218;6.576;2022-10-17T11:31:08;13.60;;;8.90;;
58553;SDS011;48119;53.218;6.576;2022-10-17T11:33:53;11.85;;;10.02;;
58553;SDS011;48119;53.218;6.576;2022-10-17T11:36:24;10.43;;;8.52;;
58553;SDS011;48119;53.218;6.576;2022-10-17T11:39:06;10.82;;;7.40;;
58553;SDS011;48119;53.218;6.576;2022-10-17T11:42:08;15.35;;;9.15;;
58553;SDS011;48119;53.218;6.576;2022-10-17T11:44:39;13.43;;;7.68;;
58553;SDS011;48119;53.218;6.576;2022-10-17T11:49:53;11.55;;;8.45;;
58553;SDS011;48119;53.218;6.576;2022-10-17T11:55:29;9.68;;;7.03;;
58553;SDS011;48119;53.218;6.576;2022-10-17T12:06:19;6.93;;;6.00;;
58553;SDS011;48119;53.218;6.576;2022-10-17T12:12:00;10.20;;;6.32;;
58553;SDS011;48119;53.218;6.576;2022-10-17T12:14:33;8.13;;;5.97;;
58553;SDS011;48119;53.218;6.576;2022-10-17T12:17:03;8.63;;;5.45;;
58553;SDS011;48119;53.218;6.576;2022-10-17T12:19:53;12.10;;;5.43;;
58553;SDS011;48119;53.218;6.576;2022-10-17T12:22:45;9.48;;;6.03;;
58553;SDS011;48119;53.218;6.576;2022-10-17T12:25:19;7.68;;;5.07;;
58553;SDS011;48119;53.218;6.576;2022-10-17T12:30:31;10.20;;;6.82;;
58553;SDS011;48119;53.218;6.576;2022-10-17T12:35:24;8.88;;;5.53;;
58553;SDS011;48119;53.218;6.576;2022-10-17T12:37:59;6.68;;;5.53;;
58553;SDS011;48119;53.218;6.576;2022-10-17T12:43:02;9.20;;;5.73;;
58553;SDS011;48119;53.218;6.576;2022-10-17T12:45:54;7.80;;;5.57;;
58553;SDS011;48119;53.218;6.576;2022-10-17T12:50:59;10.00;;;6.80;;
58553;SDS011;48119;53.218;6.576;2022-10-17T12:53:45;8.10;;;5.60;;
58553;SDS011;48119;53.218;6.576;2022-10-17T12:56:21;6.85;;;4.93;;
58553;SDS011;48119;53.218;6.576;2022-10-17T12:59:13;6.30;;;4.97;;
58553;SDS011;48119;53.218;6.576;2022-10-17T13:01:41;6.07;;;4.97;;
58553;SDS011;48119;53.218;6.576;2022-10-17T13:04:09;8.20;;;5.25;;
58553;SDS011;48119;53.218;6.576;2022-10-17T13:06:37;8.48;;;5.10;;
58553;SDS011;48119;53.218;6.576;2022-10-17T13:09:14;7.60;;;4.93;;
58553;SDS011;48119;53.218;6.576;2022-10-17T13:11:48;8.15;;;4.88;;
58553;SDS011;48119;53.218;6.576;2022-10-17T13:14:15;8.63;;;4.43;;
58553;SDS011;48119;53.218;6.576;2022-10-17T13:16:53;9.00;;;4.50;;
58553;SDS011;48119;53.218;6.576;2022-10-17T13:19:20;8.60;;;4.72;;
58553;SDS011;48119;53.218;6.576;2022-10-17T13:24:22;7.68;;;5.18;;
58553;SDS011;48119;53.218;6.576;2022-10-17T13:26:56;8.68;;;4.68;;
58553;SDS011;48119;53.218;6.576;2022-10-17T13:29:22;6.35;;;4.20;;
58553;SDS011;48119;53.218;6.576;2022-10-17T13:31:51;8.77;;;4.75;;
58553;SDS011;48119;53.218;6.576;2022-10-17T13:34:19;5.78;;;3.42;;
58553;SDS011;48119;53.218;6.576;2022-10-17T13:36:51;6.85;;;4.82;;
58553;SDS011;48119;53.218;6.576;2022-10-17T13:39:29;7.00;;;4.35;;
58553;SDS011;48119;53.218;6.576;2022-10-17T13:41:59;6.45;;;4.60;;
58553;SDS011;48119;53.218;6.576;2022-10-17T13:44:27;9.02;;;4.50;;
58553;SDS011;48119;53.218;6.576;2022-10-17T13:46:57;13.45;;;4.82;;
58553;SDS011;48119;53.218;6.576;2022-10-17T13:49:31;7.97;;;3.88;;
58553;SDS011;48119;53.218;6.576;2022-10-17T13:52:05;7.30;;;4.10;;
58553;SDS011;48119;53.218;6.576;2022-10-17T13:54:38;8.23;;;4.65;;
58553;SDS011;48119;53.218;6.576;2022-10-17T13:57:15;7.75;;;4.45;;
58553;SDS011;48119;53.218;6.576;2022-10-17T13:59:41;6.90;;;3.80;;
58553;SDS011;48119;53.218;6.576;2022-10-17T14:02:15;7.13;;;3.70;;
58553;SDS011;48119;53.218;6.576;2022-10-17T14:04:44;5.78;;;3.60;;
58553;SDS011;48119;53.218;6.576;2022-10-17T14:08:12;5.50;;;2.92;;
58553;SDS011;48119;53.218;6.576;2022-10-17T14:10:16;5.10;;;3.17;;
58553;SDS011;48119;53.218;6.576;2022-10-17T14:12:48;5.95;;;2.22;;
58553;SDS011;48119;53.218;6.576;2022-10-17T14:15:17;4.72;;;3.13;;
58553;SDS011;48119;53.218;6.576;2022-10-17T14:17:45;5.88;;;2.90;;
58553;SDS011;48119;53.218;6.576;2022-10-17T14:20:18;5.18;;;2.95;;
58553;SDS011;48119;53.218;6.576;2022-10-17T14:22:46;4.60;;;2.83;;
58553;SDS011;48119;53.218;6.576;2022-10-17T14:35:52;5.45;;;2.70;;
58553;SDS011;48119;53.218;6.576;2022-10-17T14:38:20;10.05;;;3.53;;
58553;SDS011;48119;53.218;6.576;2022-10-17T14:40:50;8.07;;;2.88;;
58553;SDS011;48119;53.218;6.576;2022-10-17T14:43:24;5.47;;;2.70;;
58553;SDS011;48119;53.218;6.576;2022-10-17T14:45:52;6.65;;;2.75;;
58553;SDS011;48119;53.218;6.576;2022-10-17T14:48:22;5.57;;;3.00;;
58553;SDS011;48119;53.218;6.576;2022-10-17T14:51:06;6.13;;;3.42;;
58553;SDS011;48119;53.218;6.576;2022-10-17T14:53:32;10.63;;;3.10;;
58553;SDS011;48119;53.218;6.576;2022-10-17T14:55:59;7.57;;;3.38;;
58553;SDS011;48119;53.218;6.576;2022-10-17T14:58:28;4.90;;;2.30;;
58553;SDS011;48119;53.218;6.576;2022-10-17T15:00:56;6.95;;;3.40;;
58553;SDS011;48119;53.218;6.576;2022-10-17T15:03:23;4.72;;;2.97;;
58553;SDS011;48119;53.218;6.576;2022-10-17T15:05:49;4.85;;;2.88;;
58553;SDS011;48119;53.218;6.576;2022-10-17T15:08:16;9.13;;;5.20;;
58553;SDS011;48119;53.218;6.576;2022-10-17T15:10:44;7.40;;;3.20;;
58553;SDS011;48119;53.218;6.576;2022-10-17T15:13:15;8.27;;;3.30;;
58553;SDS011;48119;53.218;6.576;2022-10-17T15:15:41;6.93;;;3.08;;
58553;SDS011;48119;53.218;6.576;2022-10-17T15:18:09;4.95;;;3.25;;
58553;SDS011;48119;53.218;6.576;2022-10-17T15:20:36;5.57;;;3.35;;
58553;SDS011;48119;53.218;6.576;2022-10-17T15:23:02;8.18;;;3.30;;
58553;SDS011;48119;53.218;6.576;2022-10-17T15:25:31;6.50;;;3.25;;
58553;SDS011;48119;53.218;6.576;2022-10-17T15:27:58;7.68;;;3.08;;
58553;SDS011;48119;53.218;6.576;2022-10-17T15:30:25;7.85;;;3.40;;
58553;SDS011;48119;53.218;6.576;2022-10-17T15:32:53;4.00;;;2.80;;
58553;SDS011;48119;53.218;6.576;2022-10-17T15:35:19;8.80;;;4.03;;
58553;SDS011;48119;53.218;6.576;2022-10-17T15:37:46;6.05;;;3.67;;
58553;SDS011;48119;53.218;6.576;2022-10-17T15:40:14;4.93;;;2.85;;
58553;SDS011;48119;53.218;6.576;2022-10-17T15:42:47;6.22;;;3.58;;
58553;SDS011;48119;53.218;6.576;2022-10-17T15:45:14;7.38;;;2.80;;
58553;SDS011;48119;53.218;6.576;2022-10-17T15:47:42;5.57;;;3.08;;
58553;SDS011;48119;53.218;6.576;2022-10-17T15:50:14;6.82;;;2.90;;
58553;SDS011;48119;53.218;6.576;2022-10-17T15:52:41;5.03;;;3.40;;
58553;SDS011;48119;53.218;6.576;2022-10-17T15:55:07;7.05;;;3.05;;
58553;SDS011;48119;53.218;6.576;2022-10-17T15:57:37;6.95;;;3.75;;
58553;SDS011;48119;53.218;6.576;2022-10-17T16:00:06;5.00;;;3.05;;
58553;SDS011;48119;53.218;6.576;2022-10-17T16:02:37;5.20;;;2.60;;
58553;SDS011;48119;53.218;6.576;2022-10-17T16:05:08;6.57;;;2.75;;
58553;SDS011;48119;53.218;6.576;2022-10-17T16:07:40;6.97;;;2.80;;
58553;SDS011;48119;53.218;6.576;2022-10-17T16:10:07;4.43;;;3.45;;
58553;SDS011;48119;53.218;6.576;2022-10-17T16:12:34;7.50;;;3.13;;
58553;SDS011;48119;53.218;6.576;2022-10-17T16:15:05;4.93;;;3.35;;
58553;SDS011;48119;53.218;6.576;2022-10-17T16:17:37;7.35;;;3.25;;
58553;SDS011;48119;53.218;6.576;2022-10-17T16:20:02;8.43;;;3.30;;
58553;SDS011;48119;53.218;6.576;2022-10-17T16:22:29;6.72;;;2.83;;
58553;SDS011;48119;53.218;6.576;2022-10-17T16:24:59;4.70;;;2.35;;
58553;SDS011;48119;53.218;6.576;2022-10-17T16:27:32;5.80;;;2.47;;
58553;SDS011;48119;53.218;6.576;2022-10-17T16:29:58;5.28;;;2.67;;
58553;SDS011;48119;53.218;6.576;2022-10-17T16:32:23;4.90;;;3.38;;
58553;SDS011;48119;53.218;6.576;2022-10-17T16:34:49;9.77;;;3.88;;
58553;SDS011;48119;53.218;6.576;2022-10-17T16:37:15;4.30;;;2.97;;
58553;SDS011;48119;53.218;6.576;2022-10-17T16:39:41;5.00;;;3.05;;
58553;SDS011;48119;53.218;6.576;2022-10-17T16:42:06;7.53;;;3.83;;
58553;SDS011;48119;53.218;6.576;2022-10-17T16:44:32;5.68;;;2.83;;
58553;SDS011;48119;53.218;6.576;2022-10-17T16:46:58;5.25;;;3.63;;
58553;SDS011;48119;53.218;6.576;2022-10-17T16:49:24;8.55;;;4.05;;
58553;SDS011;48119;53.218;6.576;2022-10-17T16:51:50;6.22;;;3.30;;
58553;SDS011;48119;53.218;6.576;2022-10-17T16:54:15;6.93;;;3.50;;
58553;SDS011;48119;53.218;6.576;2022-10-17T16:56:41;6.72;;;3.38;;
58553;SDS011;48119;53.218;6.576;2022-10-17T16:59:08;8.25;;;5.03;;
58553;SDS011;48119;53.218;6.576;2022-10-17T17:01:34;8.23;;;4.28;;
58553;SDS011;48119;53.218;6.576;2022-10-17T17:04:02;6.57;;;3.88;;
58553;SDS011;48119;53.218;6.576;2022-10-17T17:06:28;5.32;;;3.58;;
58553;SDS011;48119;53.218;6.576;2022-10-17T17:08:55;8.23;;;3.88;;